sensor_id;sensor_type;location;lat;lon;timestamp;pressure;altitude;pressure_sealevel;temperature;humidity
75942;BME280;64622;46.220;19.878;2022-12-18T00:01:24;101990.78;;;-2.68;98.28
75942;BME280;64622;46.220;19.878;2022-12-18T00:03:52;101986.56;;;-2.76;98.37
75942;BME280;64622;46.220;19.878;2022-12-18T00:06:20;101990.16;;;-2.80;98.17
75942;BME280;64622;46.220;19.878;2022-12-18T00:08:47;101992.09;;;-2.87;98.51
75942;BME280;64622;46.220;19.878;2022-12-18T00:11:17;101995.78;;;-2.96;97.99
75942;BME280;64622;46.220;19.878;2022-12-18T00:13:45;102004.47;;;-2.94;97.48
75942;BME280;64622;46.220;19.878;2022-12-18T00:16:14;102000.19;;;-3.00;98.21
75942;BME280;64622;46.220;19.878;2022-12-18T00:18:42;102009.75;;;-2.97;97.43
75942;BME280;64622;46.220;19.878;2022-12-18T00:21:10;102009.75;;;-2.97;97.68
75942;BME280;64622;46.220;19.878;2022-12-18T00:23:38;102016.66;;;-2.93;98.76
75942;BME280;64622;46.220;19.878;2022-12-18T00:26:07;102008.00;;;-2.97;97.92
75942;BME280;64622;46.220;19.878;2022-12-18T00:28:35;102023.69;;;-2.95;98.82
75942;BME280;64622;46.220;19.878;2022-12-18T00:31:07;102024.62;;;-2.97;99.16
75942;BME280;64622;46.220;19.878;2022-12-18T00:33:35;102029.81;;;-2.96;99.40
75942;BME280;64622;46.220;19.878;2022-12-18T00:38:29;102043.13;;;-3.07;99.60
75942;BME280;64622;46.220;19.878;2022-12-18T00:40:55;102051.13;;;-3.14;99.18
75942;BME280;64622;46.220;19.878;2022-12-18T00:43:22;102045.00;;;-3.13;99.99
75942;BME280;64622;46.220;19.878;2022-12-18T00:45:48;102051.28;;;-3.20;99.13
75942;BME280;64622;46.220;19.878;2022-12-18T00:48:15;102054.66;;;-3.15;98.82
75942;BME280;64622;46.220;19.878;2022-12-18T00:50:41;102069.47;;;-3.14;99.79
75942;BME280;64622;46.220;19.878;2022-12-18T00:53:08;102074.75;;;-3.17;99.14
75942;BME280;64622;46.220;19.878;2022-12-18T00:55:37;102078.38;;;-3.22;100.00
75942;BME280;64622;46.220;19.878;2022-12-18T00:58:03;102083.53;;;-3.20;100.00
75942;BME280;64622;46.220;19.878;2022-12-18T01:00:30;102081.00;;;-3.24;100.00
75942;BME280;64622;46.220;19.878;2022-12-18T01:02:57;102086.38;;;-3.30;100.00
75942;BME280;64622;46.220;19.878;2022-12-18T01:05:24;102094.28;;;-3.35;100.00
75942;BME280;64622;46.220;19.878;2022-12-18T01:07:51;102088.13;;;-3.32;100.00
75942;BME280;64622;46.220;19.878;2022-12-18T01:10:19;102096.91;;;-3.35;100.00
75942;BME280;64622;46.220;19.878;2022-12-18T01:12:45;102097.63;;;-3.25;100.00
75942;BME280;64622;46.220;19.878;2022-12-18T01:15:14;102101.00;;;-3.18;100.00
75942;BME280;64622;46.220;19.878;2022-12-18T01:17:42;102099.09;;;-3.12;99.45
75942;BME280;64622;46.220;19.878;2022-12-18T01:20:11;102105.06;;;-3.04;99.89
75942;BME280;64622;46.220;19.878;2022-12-18T01:22:38;102092.88;;;-3.07;99.33
75942;BME280;64622;46.220;19.878;2022-12-18T01:25:07;102103.25;;;-3.02;99.58
75942;BME280;64622;46.220;19.878;2022-12-18T01:27:34;102110.97;;;-2.95;99.82
75942;BME280;64622;46.220;19.878;2022-12-18T01:30:04;102115.38;;;-2.97;100.00
75942;BME280;64622;46.220;19.878;2022-12-18T01:32:32;102105.97;;;-3.07;100.00
75942;BME280;64622;46.220;19.878;2022-12-18T01:34:58;102113.72;;;-3.01;100.00
75942;BME280;64622;46.220;19.878;2022-12-18T01:37:26;102103.47;;;-3.11;99.92
75942;BME280;64622;46.220;19.878;2022-12-18T01:39:53;102112.19;;;-3.12;100.00
75942;BME280;64622;46.220;19.878;2022-12-18T01:42:23;102104.28;;;-3.09;99.97
75942;BME280;64622;46.220;19.878;2022-12-18T01:44:59;102111.03;;;-2.97;100.00
75942;BME280;64622;46.220;19.878;2022-12-18T01:52:42;102129.66;;;-2.68;100.00
75942;BME280;64622;46.220;19.878;2022-12-18T01:55:11;102128.84;;;-2.72;99.57
75942;BME280;64622;46.220;19.878;2022-12-18T01:57:39;102141.75;;;-2.63;99.77
75942;BME280;64622;46.220;19.878;2022-12-18T02:00:13;102139.00;;;-2.57;99.11
75942;BME280;64622;46.220;19.878;2022-12-18T02:02:45;102129.44;;;-2.58;99.37
75942;BME280;64622;46.220;19.878;2022-12-18T02:05:59;102138.72;;;-2.44;99.08
75942;BME280;64622;46.220;19.878;2022-12-18T02:08:22;102145.59;;;-2.38;99.04
75942;BME280;64622;46.220;19.878;2022-12-18T02:11:17;102138.53;;;-2.35;98.89
75942;BME280;64622;46.220;19.878;2022-12-18T02:16:26;102145.28;;;-2.25;98.50
75942;BME280;64622;46.220;19.878;2022-12-18T02:19:00;102139.25;;;-2.28;99.01
75942;BME280;64622;46.220;19.878;2022-12-18T02:24:27;102150.50;;;-2.23;98.93
75942;BME280;64622;46.220;19.878;2022-12-18T02:27:03;102146.97;;;-2.21;100.00
75942;BME280;64622;46.220;19.878;2022-12-18T02:29:36;102152.97;;;-2.16;99.33
75942;BME280;64622;46.220;19.878;2022-12-18T02:32:10;102169.28;;;-2.03;98.82
75942;BME280;64622;46.220;19.878;2022-12-18T02:34:40;102162.37;;;-2.07;97.54
75942;BME280;64622;46.220;19.878;2022-12-18T02:37:12;102176.25;;;-2.02;97.09
75942;BME280;64622;46.220;19.878;2022-12-18T02:39:44;102172.69;;;-2.00;97.67
75942;BME280;64622;46.220;19.878;2022-12-18T02:42:13;102162.31;;;-2.04;97.25
75942;BME280;64622;46.220;19.878;2022-12-18T02:44:45;102174.34;;;-1.94;96.79
75942;BME280;64622;46.220;19.878;2022-12-18T02:47:15;102164.84;;;-2.01;97.42
75942;BME280;64622;46.220;19.878;2022-12-18T02:52:43;102182.09;;;-1.90;97.90
75942;BME280;64622;46.220;19.878;2022-12-18T03:00:53;102178.72;;;-1.96;97.70
75942;BME280;64622;46.220;19.878;2022-12-18T03:03:51;102189.97;;;-1.90;98.33
75942;BME280;64622;46.220;19.878;2022-12-18T03:06:48;102188.19;;;-1.87;96.94
75942;BME280;64622;46.220;19.878;2022-12-18T03:09:21;102190.72;;;-1.85;96.64
75942;BME280;64622;46.220;19.878;2022-12-18T03:11:55;102196.69;;;-1.78;96.91
75942;BME280;64622;46.220;19.878;2022-12-18T03:14:42;102201.97;;;-1.80;96.76
75942;BME280;64622;46.220;19.878;2022-12-18T03:17:12;102207.16;;;-1.77;96.83
75942;BME280;64622;46.220;19.878;2022-12-18T03:19:41;102201.03;;;-1.77;96.12
75942;BME280;64622;46.220;19.878;2022-12-18T03:22:10;102214.16;;;-1.77;96.52
75942;BME280;64622;46.220;19.878;2022-12-18T03:24:38;102211.50;;;-1.76;95.78
75942;BME280;64622;46.220;19.878;2022-12-18T03:27:10;102210.50;;;-1.70;96.08
75942;BME280;64622;46.220;19.878;2022-12-18T03:29:43;102220.94;;;-1.69;95.99
75942;BME280;64622;46.220;19.878;2022-12-18T03:32:18;102221.88;;;-1.71;96.14
75942;BME280;64622;46.220;19.878;2022-12-18T03:34:50;102234.91;;;-1.65;96.23
75942;BME280;64622;46.220;19.878;2022-12-18T03:37:18;102235.84;;;-1.67;95.35
75942;BME280;64622;46.220;19.878;2022-12-18T03:39:45;102243.53;;;-1.60;95.32
75942;BME280;64622;46.220;19.878;2022-12-18T03:42:46;102239.91;;;-1.56;95.74
75942;BME280;64622;46.220;19.878;2022-12-18T03:45:23;102241.75;;;-1.60;94.44
75942;BME280;64622;46.220;19.878;2022-12-18T03:53:06;102247.59;;;-1.49;95.44
75942;BME280;64622;46.220;19.878;2022-12-18T03:55:35;102244.03;;;-1.46;95.35
75942;BME280;64622;46.220;19.878;2022-12-18T03:58:06;102250.13;;;-1.42;95.51
75942;BME280;64622;46.220;19.878;2022-12-18T04:00:38;102244.13;;;-1.49;96.95
75942;BME280;64622;46.220;19.878;2022-12-18T04:03:07;102261.63;;;-1.50;96.78
75942;BME280;64622;46.220;19.878;2022-12-18T04:05:36;102261.66;;;-1.51;96.64
75942;BME280;64622;46.220;19.878;2022-12-18T04:08:04;102259.22;;;-1.59;96.77
75942;BME280;64622;46.220;19.878;2022-12-18T04:10:33;102273.00;;;-1.49;96.62
75942;BME280;64622;46.220;19.878;2022-12-18T04:13:00;102265.22;;;-1.54;96.61
75942;BME280;64622;46.220;19.878;2022-12-18T04:15:27;102266.16;;;-1.56;96.86
75942;BME280;64622;46.220;19.878;2022-12-18T04:17:55;102271.41;;;-1.56;96.18
75942;BME280;64622;46.220;19.878;2022-12-18T04:20:22;102272.50;;;-1.66;95.90
75942;BME280;64622;46.220;19.878;2022-12-18T04:22:49;102272.34;;;-1.59;95.90
75942;BME280;64622;46.220;19.878;2022-12-18T04:25:17;102282.75;;;-1.54;96.55
75942;BME280;64622;46.220;19.878;2022-12-18T04:27:45;102287.06;;;-1.52;96.88
75942;BME280;64622;46.220;19.878;2022-12-18T04:30:12;102288.00;;;-1.54;96.36
75942;BME280;64622;46.220;19.878;2022-12-18T04:32:39;102292.41;;;-1.56;96.41
75942;BME280;64622;46.220;19.878;2022-12-18T04:35:05;102302.13;;;-1.60;96.69
75942;BME280;64622;46.220;19.878;2022-12-18T04:37:36;102307.38;;;-1.60;96.88
75942;BME280;64622;46.220;19.878;2022-12-18T04:40:05;102306.56;;;-1.62;96.86
75942;BME280;64622;46.220;19.878;2022-12-18T04:42:32;102310.94;;;-1.62;96.78
75942;BME280;64622;46.220;19.878;2022-12-18T04:44:58;102314.34;;;-1.59;96.52
75942;BME280;64622;46.220;19.878;2022-12-18T04:47:25;102324.84;;;-1.59;96.69
75942;BME280;64622;46.220;19.878;2022-12-18T04:49:51;102317.03;;;-1.60;96.49
75942;BME280;64622;46.220;19.878;2022-12-18T04:52:18;102338.78;;;-1.55;96.50
75942;BME280;64622;46.220;19.878;2022-12-18T04:54:44;102325.91;;;-1.67;96.31
75942;BME280;64622;46.220;19.878;2022-12-18T04:57:10;102341.44;;;-1.57;96.53
75942;BME280;64622;46.220;19.878;2022-12-18T04:59:37;102337.12;;;-1.59;96.62
75942;BME280;64622;46.220;19.878;2022-12-18T05:02:04;102344.12;;;-1.60;96.58
75942;BME280;64622;46.220;19.878;2022-12-18T05:04:30;102348.56;;;-1.62;96.66
75942;BME280;64622;46.220;19.878;2022-12-18T05:06:58;102338.81;;;-1.57;96.73
75942;BME280;64622;46.220;19.878;2022-12-18T05:09:25;102332.78;;;-1.60;96.61
75942;BME280;64622;46.220;19.878;2022-12-18T05:11:51;102344.06;;;-1.57;96.55
75942;BME280;64622;46.220;19.878;2022-12-18T05:14:18;102343.22;;;-1.59;96.77
75942;BME280;64622;46.220;19.878;2022-12-18T05:16:44;102351.97;;;-1.58;96.77
75942;BME280;64622;46.220;19.878;2022-12-18T05:19:11;102353.72;;;-1.59;96.87
75942;BME280;64622;46.220;19.878;2022-12-18T05:21:38;102357.34;;;-1.62;96.93
75942;BME280;64622;46.220;19.878;2022-12-18T05:24:04;102349.41;;;-1.61;97.02
75942;BME280;64622;46.220;19.878;2022-12-18T05:26:31;102357.41;;;-1.67;97.40
75942;BME280;64622;46.220;19.878;2022-12-18T05:28:58;102359.25;;;-1.71;97.49
75942;BME280;64622;46.220;19.878;2022-12-18T05:31:24;102362.13;;;-1.83;97.95
75942;BME280;64622;46.220;19.878;2022-12-18T05:33:51;102359.84;;;-1.99;98.44
75942;BME280;64622;46.220;19.878;2022-12-18T05:36:17;102361.75;;;-2.09;98.49
75942;BME280;64622;46.220;19.878;2022-12-18T05:38:44;102374.16;;;-2.17;98.92
75942;BME280;64622;46.220;19.878;2022-12-18T05:41:11;102363.97;;;-2.32;98.81
75942;BME280;64622;46.220;19.878;2022-12-18T05:43:39;102384.03;;;-2.31;99.61
75942;BME280;64622;46.220;19.878;2022-12-18T05:46:08;102383.38;;;-2.42;100.00
75942;BME280;64622;46.220;19.878;2022-12-18T05:48:35;102385.25;;;-2.50;100.00
75942;BME280;64622;46.220;19.878;2022-12-18T05:51:06;102393.22;;;-2.56;100.00
75942;BME280;64622;46.220;19.878;2022-12-18T05:53:35;102402.06;;;-2.61;100.00
75942;BME280;64622;46.220;19.878;2022-12-18T05:56:06;102401.22;;;-2.65;99.82
75942;BME280;64622;46.220;19.878;2022-12-18T05:58:33;102404.81;;;-2.68;100.00
75942;BME280;64622;46.220;19.878;2022-12-18T06:01:12;102412.94;;;-2.85;100.00
75942;BME280;64622;46.220;19.878;2022-12-18T06:03:39;102423.53;;;-2.92;100.00
75942;BME280;64622;46.220;19.878;2022-12-18T06:06:24;102393.34;;;-3.17;100.00
75942;BME280;64622;46.220;19.878;2022-12-18T06:08:52;102418.66;;;-3.20;100.00
75942;BME280;64622;46.220;19.878;2022-12-18T06:11:24;102414.53;;;-3.34;100.00
75942;BME280;64622;46.220;19.878;2022-12-18T06:13:55;102407.66;;;-3.44;100.00
75942;BME280;64622;46.220;19.878;2022-12-18T06:16:22;102410.31;;;-3.46;100.00
75942;BME280;64622;46.220;19.878;2022-12-18T06:18:48;102416.34;;;-3.42;100.00
75942;BME280;64622;46.220;19.878;2022-12-18T06:21:15;102410.25;;;-3.41;100.00
75942;BME280;64622;46.220;19.878;2022-12-18T06:23:42;102418.12;;;-3.42;100.00
75942;BME280;64622;46.220;19.878;2022-12-18T06:26:10;102425.00;;;-3.36;100.00
75942;BME280;64622;46.220;19.878;2022-12-18T06:28:38;102413.00;;;-3.50;100.00
75942;BME280;64622;46.220;19.878;2022-12-18T06:31:05;102431.28;;;-3.48;100.00
75942;BME280;64622;46.220;19.878;2022-12-18T06:33:32;102436.66;;;-3.62;100.00
75942;BME280;64622;46.220;19.878;2022-12-18T06:36:01;102438.38;;;-3.60;100.00
75942;BME280;64622;46.220;19.878;2022-12-18T06:38:28;102435.94;;;-3.73;100.00
75942;BME280;64622;46.220;19.878;2022-12-18T06:40:56;102452.53;;;-3.76;100.00
75942;BME280;64622;46.220;19.878;2022-12-18T06:43:23;102458.72;;;-3.81;100.00
75942;BME280;64622;46.220;19.878;2022-12-18T06:45:49;102452.63;;;-3.83;100.00
75942;BME280;64622;46.220;19.878;2022-12-18T06:48:21;102461.28;;;-3.80;100.00
75942;BME280;64622;46.220;19.878;2022-12-18T06:50:48;102459.47;;;-3.72;100.00
75942;BME280;64622;46.220;19.878;2022-12-18T06:53:15;102468.97;;;-3.63;100.00
75942;BME280;64622;46.220;19.878;2022-12-18T06:55:41;102478.53;;;-3.62;100.00
75942;BME280;64622;46.220;19.878;2022-12-18T06:58:08;102480.22;;;-3.55;100.00
75942;BME280;64622;46.220;19.878;2022-12-18T07:00:35;102482.66;;;-3.38;100.00
75942;BME280;64622;46.220;19.878;2022-12-18T07:03:01;102483.28;;;-3.22;100.00
75942;BME280;64622;46.220;19.878;2022-12-18T07:05:28;102476.16;;;-3.09;100.00
75942;BME280;64622;46.220;19.878;2022-12-18T07:07:55;102485.50;;;-2.90;100.00
75942;BME280;64622;46.220;19.878;2022-12-18T07:10:22;102506.25;;;-2.77;100.00
75942;BME280;64622;46.220;19.878;2022-12-18T07:12:49;102501.88;;;-2.76;100.00
75942;BME280;64622;46.220;19.878;2022-12-18T07:15:15;102513.00;;;-2.61;100.00
75942;BME280;64622;46.220;19.878;2022-12-18T07:17:42;102515.50;;;-2.53;100.00
75942;BME280;64622;46.220;19.878;2022-12-18T07:20:09;102520.53;;;-2.41;100.00
75942;BME280;64622;46.220;19.878;2022-12-18T07:22:36;102530.78;;;-2.26;100.00
75942;BME280;64622;46.220;19.878;2022-12-18T07:25:02;102529.84;;;-2.21;100.00
75942;BME280;64622;46.220;19.878;2022-12-18T07:27:29;102523.66;;;-2.15;100.00
75942;BME280;64622;46.220;19.878;2022-12-18T07:29:56;102526.06;;;-2.03;100.00
75942;BME280;64622;46.220;19.878;2022-12-18T07:32:22;102531.87;;;-1.86;100.00
75942;BME280;64622;46.220;19.878;2022-12-18T07:34:49;102542.06;;;-1.70;100.00
75942;BME280;64622;46.220;19.878;2022-12-18T07:37:15;102536.34;;;-1.44;100.00
75942;BME280;64622;46.220;19.878;2022-12-18T07:39:42;102541.03;;;-1.16;100.00
75942;BME280;64622;46.220;19.878;2022-12-18T07:42:09;102540.56;;;-0.93;99.33
75942;BME280;64622;46.220;19.878;2022-12-18T07:44:54;102544.50;;;-0.73;98.16
75942;BME280;64622;46.220;19.878;2022-12-18T07:47:21;102546.66;;;-0.52;96.98
75942;BME280;64622;46.220;19.878;2022-12-18T07:49:47;102563.53;;;-0.24;96.42
75942;BME280;64622;46.220;19.878;2022-12-18T07:52:14;102564.44;;;-0.25;94.73
75942;BME280;64622;46.220;19.878;2022-12-18T07:54:41;102573.09;;;-0.20;93.82
75942;BME280;64622;46.220;19.878;2022-12-18T07:57:08;102576.69;;;-0.24;93.74
75942;BME280;64622;46.220;19.878;2022-12-18T07:59:35;102580.31;;;0.07;92.76
75942;BME280;64622;46.220;19.878;2022-12-18T08:02:02;102568.84;;;0.10;93.06
75942;BME280;64622;46.220;19.878;2022-12-18T08:04:29;102571.16;;;0.23;91.61
75942;BME280;64622;46.220;19.878;2022-12-18T08:06:56;102572.66;;;0.33;90.37
75942;BME280;64622;46.220;19.878;2022-12-18T08:09:23;102560.62;;;0.55;89.73
75942;BME280;64622;46.220;19.878;2022-12-18T08:11:50;102581.03;;;0.47;89.21
75942;BME280;64622;46.220;19.878;2022-12-18T08:14:16;102584.69;;;0.43;89.55
75942;BME280;64622;46.220;19.878;2022-12-18T08:16:43;102589.84;;;0.46;89.22
75942;BME280;64622;46.220;19.878;2022-12-18T08:19:10;102590.75;;;0.77;88.15
75942;BME280;64622;46.220;19.878;2022-12-18T08:21:37;102606.22;;;0.91;87.80
75942;BME280;64622;46.220;19.878;2022-12-18T08:24:03;102602.66;;;0.93;88.60
75942;BME280;64622;46.220;19.878;2022-12-18T08:26:31;102609.91;;;1.16;87.18
75942;BME280;64622;46.220;19.878;2022-12-18T08:28:59;102601.62;;;0.97;86.66
75942;BME280;64622;46.220;19.878;2022-12-18T08:31:27;102609.78;;;1.20;85.97
75942;BME280;64622;46.220;19.878;2022-12-18T08:33:55;102628.62;;;1.07;86.25
75942;BME280;64622;46.220;19.878;2022-12-18T08:36:23;102621.75;;;1.32;86.41
75942;BME280;64622;46.220;19.878;2022-12-18T08:38:50;102625.53;;;1.52;85.57
75942;BME280;64622;46.220;19.878;2022-12-18T08:41:17;102623.56;;;1.59;84.74
75942;BME280;64622;46.220;19.878;2022-12-18T08:43:44;102616.75;;;1.52;84.33
75942;BME280;64622;46.220;19.878;2022-12-18T08:46:38;102623.75;;;1.82;82.49
75942;BME280;64622;46.220;19.878;2022-12-18T08:49:07;102626.50;;;1.77;83.86
75942;BME280;64622;46.220;19.878;2022-12-18T08:51:34;102623.34;;;1.94;82.46
75942;BME280;64622;46.220;19.878;2022-12-18T08:54:02;102624.97;;;1.99;82.91
75942;BME280;64622;46.220;19.878;2022-12-18T08:56:29;102619.91;;;2.45;81.75
75942;BME280;64622;46.220;19.878;2022-12-18T08:58:57;102616.03;;;2.55;81.56
75942;BME280;64622;46.220;19.878;2022-12-18T09:01:24;102619.59;;;2.54;81.76
75942;BME280;64622;46.220;19.878;2022-12-18T09:03:51;102615.03;;;2.84;79.55
75942;BME280;64622;46.220;19.878;2022-12-18T09:06:19;102613.72;;;3.20;77.08
75942;BME280;64622;46.220;19.878;2022-12-18T09:08:46;102624.97;;;3.25;77.80
75942;BME280;64622;46.220;19.878;2022-12-18T09:11:24;102622.03;;;2.85;78.23
75942;BME280;64622;46.220;19.878;2022-12-18T09:13:53;102617.63;;;2.85;78.07
75942;BME280;64622;46.220;19.878;2022-12-18T09:16:20;102626.37;;;3.35;77.59
75942;BME280;64622;46.220;19.878;2022-12-18T09:18:48;102633.06;;;3.45;75.45
75942;BME280;64622;46.220;19.878;2022-12-18T09:21:17;102630.63;;;3.39;75.85
75942;BME280;64622;46.220;19.878;2022-12-18T09:23:50;102637.97;;;3.55;74.70
75942;BME280;64622;46.220;19.878;2022-12-18T09:26:17;102636.03;;;3.36;76.22
75942;BME280;64622;46.220;19.878;2022-12-18T09:28:43;102629.09;;;3.56;74.84
75942;BME280;64622;46.220;19.878;2022-12-18T09:31:12;102639.28;;;3.67;74.69
75942;BME280;64622;46.220;19.878;2022-12-18T09:33:42;102637.66;;;4.07;73.55
75942;BME280;64622;46.220;19.878;2022-12-18T09:36:10;102644.38;;;3.94;73.58
75942;BME280;64622;46.220;19.878;2022-12-18T09:38:37;102638.84;;;4.63;71.63
75942;BME280;64622;46.220;19.878;2022-12-18T09:41:39;102651.66;;;4.54;71.79
75942;BME280;64622;46.220;19.878;2022-12-18T09:49:44;102636.44;;;4.79;70.08
75942;BME280;64622;46.220;19.878;2022-12-18T09:54:48;102640.66;;;5.23;66.02
75942;BME280;64622;46.220;19.878;2022-12-18T09:57:19;102633.69;;;5.20;65.98
75942;BME280;64622;46.220;19.878;2022-12-18T09:59:51;102636.25;;;5.81;66.95
75942;BME280;64622;46.220;19.878;2022-12-18T10:02:25;102629.16;;;5.79;66.65
75942;BME280;64622;46.220;19.878;2022-12-18T10:05:03;102633.69;;;5.59;64.80
75942;BME280;64622;46.220;19.878;2022-12-18T10:07:43;102621.81;;;5.47;64.34
75942;BME280;64622;46.220;19.878;2022-12-18T10:10:29;102632.03;;;5.18;64.68
75942;BME280;64622;46.220;19.878;2022-12-18T10:13:06;102627.44;;;5.41;64.25
75942;BME280;64622;46.220;19.878;2022-12-18T10:15:48;102622.97;;;5.81;65.23
75942;BME280;64622;46.220;19.878;2022-12-18T10:18:28;102615.41;;;4.11;65.06
75942;BME280;64622;46.220;19.878;2022-12-18T10:21:11;102614.09;;;5.43;63.14
75942;BME280;64622;46.220;19.878;2022-12-18T10:26:32;102606.59;;;5.51;63.46
75942;BME280;64622;46.220;19.878;2022-12-18T10:28:59;102616.19;;;5.16;63.62
75942;BME280;64622;46.220;19.878;2022-12-18T10:31:26;102602.38;;;5.47;63.33
75942;BME280;64622;46.220;19.878;2022-12-18T10:33:53;102609.13;;;5.54;61.63
75942;BME280;64622;46.220;19.878;2022-12-18T10:36:20;102619.00;;;5.32;62.68
75942;BME280;64622;46.220;19.878;2022-12-18T10:38:47;102614.88;;;5.63;61.96
75942;BME280;64622;46.220;19.878;2022-12-18T10:43:43;102618.75;;;5.75;61.51
75942;BME280;64622;46.220;19.878;2022-12-18T10:48:56;102619.50;;;5.21;63.99
75942;BME280;64622;46.220;19.878;2022-12-18T10:51:27;102614.31;;;5.18;61.82
75942;BME280;64622;46.220;19.878;2022-12-18T10:54:01;102605.59;;;5.35;62.53
75942;BME280;64622;46.220;19.878;2022-12-18T10:56:29;102612.25;;;5.82;61.21
75942;BME280;64622;46.220;19.878;2022-12-18T10:59:00;102593.44;;;5.29;62.17
75942;BME280;64622;46.220;19.878;2022-12-18T11:01:27;102607.06;;;5.22;62.47
75942;BME280;64622;46.220;19.878;2022-12-18T11:06:23;102603.66;;;5.38;62.79
75942;BME280;64622;46.220;19.878;2022-12-18T11:09:05;102597.84;;;5.30;62.11
75942;BME280;64622;46.220;19.878;2022-12-18T11:11:33;102608.72;;;5.63;61.77
75942;BME280;64622;46.220;19.878;2022-12-18T11:14:02;102607.13;;;5.96;61.12
75942;BME280;64622;46.220;19.878;2022-12-18T11:16:33;102601.62;;;5.82;60.83
75942;BME280;64622;46.220;19.878;2022-12-18T11:19:36;102616.41;;;6.06;60.27
75942;BME280;64622;46.220;19.878;2022-12-18T11:22:21;102597.78;;;6.06;60.24
75942;BME280;64622;46.220;19.878;2022-12-18T11:25:05;102596.94;;;6.06;59.75
75942;BME280;64622;46.220;19.878;2022-12-18T11:27:33;102598.59;;;5.89;59.81
75942;BME280;64622;46.220;19.878;2022-12-18T11:30:21;102603.37;;;5.83;59.57
75942;BME280;64622;46.220;19.878;2022-12-18T11:38:22;102600.41;;;6.24;57.78
75942;BME280;64622;46.220;19.878;2022-12-18T11:43:54;102612.72;;;5.71;59.04
75942;BME280;64622;46.220;19.878;2022-12-18T11:46:37;102599.47;;;5.90;58.09
75942;BME280;64622;46.220;19.878;2022-12-18T11:49:15;102609.66;;;5.99;56.58
75942;BME280;64622;46.220;19.878;2022-12-18T11:51:46;102598.59;;;6.08;57.04
75942;BME280;64622;46.220;19.878;2022-12-18T11:54:15;102612.44;;;5.77;58.68
75942;BME280;64622;46.220;19.878;2022-12-18T11:56:49;102613.88;;;5.66;59.18
75942;BME280;64622;46.220;19.878;2022-12-18T12:08:19;102610.84;;;5.73;58.31
75942;BME280;64622;46.220;19.878;2022-12-18T12:16:19;102630.56;;;6.07;57.67
75942;BME280;64622;46.220;19.878;2022-12-18T12:21:40;102626.25;;;6.39;56.33
75942;BME280;64622;46.220;19.878;2022-12-18T12:24:36;102619.91;;;6.42;57.11
75942;BME280;64622;46.220;19.878;2022-12-18T12:27:20;102611.03;;;6.60;55.32
75942;BME280;64622;46.220;19.878;2022-12-18T12:30:08;102613.37;;;6.49;57.03
75942;BME280;64622;46.220;19.878;2022-12-18T12:35:11;102605.47;;;5.75;58.38
75942;BME280;64622;46.220;19.878;2022-12-18T12:40:19;102598.56;;;5.71;58.77
75942;BME280;64622;46.220;19.878;2022-12-18T12:43:00;102592.19;;;5.93;57.91
75942;BME280;64622;46.220;19.878;2022-12-18T12:50:49;102588.25;;;5.83;58.00
75942;BME280;64622;46.220;19.878;2022-12-18T12:53:29;102593.84;;;5.77;57.76
75942;BME280;64622;46.220;19.878;2022-12-18T12:55:57;102590.84;;;5.66;58.61
75942;BME280;64622;46.220;19.878;2022-12-18T13:07:13;102611.16;;;4.90;61.06
75942;BME280;64622;46.220;19.878;2022-12-18T13:15:32;102610.50;;;5.05;61.64
75942;BME280;64622;46.220;19.878;2022-12-18T13:18:11;102607.22;;;5.19;61.02
75942;BME280;64622;46.220;19.878;2022-12-18T13:20:46;102605.03;;;5.08;61.39
75942;BME280;64622;46.220;19.878;2022-12-18T13:25:59;102623.16;;;4.37;63.55
75942;BME280;64622;46.220;19.878;2022-12-18T13:31:01;102635.25;;;4.01;64.12
75942;BME280;64622;46.220;19.878;2022-12-18T13:38:43;102642.16;;;3.84;65.34
75942;BME280;64622;46.220;19.878;2022-12-18T13:43:54;102652.00;;;3.80;64.93
75942;BME280;64622;46.220;19.878;2022-12-18T13:46:42;102641.03;;;3.43;66.56
75942;BME280;64622;46.220;19.878;2022-12-18T13:51:46;102660.41;;;3.21;67.60
75942;BME280;64622;46.220;19.878;2022-12-18T13:54:18;102640.75;;;3.03;69.69
75942;BME280;64622;46.220;19.878;2022-12-18T13:56:48;102659.66;;;2.93;70.68
75942;BME280;64622;46.220;19.878;2022-12-18T13:59:23;102657.66;;;2.75;71.47
75942;BME280;64622;46.220;19.878;2022-12-18T14:01:56;102665.97;;;2.64;72.28
75942;BME280;64622;46.220;19.878;2022-12-18T14:04:28;102675.88;;;2.58;72.53
75942;BME280;64622;46.220;19.878;2022-12-18T14:07:03;102670.66;;;2.55;72.47
75942;BME280;64622;46.220;19.878;2022-12-18T14:09:35;102675.31;;;2.48;73.07
75942;BME280;64622;46.220;19.878;2022-12-18T14:12:02;102678.84;;;2.47;71.64
75942;BME280;64622;46.220;19.878;2022-12-18T14:14:50;102688.94;;;2.35;72.67
75942;BME280;64622;46.220;19.878;2022-12-18T14:17:18;102686.91;;;2.17;72.77
75942;BME280;64622;46.220;19.878;2022-12-18T14:19:50;102674.41;;;1.94;73.23
75942;BME280;64622;46.220;19.878;2022-12-18T14:22:21;102681.44;;;1.94;73.84
75942;BME280;64622;46.220;19.878;2022-12-18T14:25:26;102687.84;;;1.87;74.96
75942;BME280;64622;46.220;19.878;2022-12-18T14:28:12;102698.75;;;1.75;75.41
75942;BME280;64622;46.220;19.878;2022-12-18T14:30:41;102685.53;;;1.46;77.57
75942;BME280;64622;46.220;19.878;2022-12-18T14:33:12;102699.03;;;1.35;77.39
75942;BME280;64622;46.220;19.878;2022-12-18T14:35:52;102704.66;;;1.23;78.22
75942;BME280;64622;46.220;19.878;2022-12-18T14:38:39;102699.88;;;1.04;78.07
75942;BME280;64622;46.220;19.878;2022-12-18T14:41:10;102694.16;;;0.88;77.36
75942;BME280;64622;46.220;19.878;2022-12-18T14:43:39;102692.47;;;0.86;78.31
75942;BME280;64622;46.220;19.878;2022-12-18T14:46:30;102695.41;;;0.74;78.84
75942;BME280;64622;46.220;19.878;2022-12-18T14:49:05;102704.34;;;0.68;80.01
75942;BME280;64622;46.220;19.878;2022-12-18T14:52:04;102713.31;;;0.60;80.05
75942;BME280;64622;46.220;19.878;2022-12-18T14:54:34;102708.47;;;0.43;80.59